createdAt,value
2019-02-09T00:00:13.987Z,3.00
2019-02-09T00:03:19.092Z,3.00
2019-02-09T00:06:24.258Z,2.90
2019-02-09T00:09:29.265Z,2.90
2019-02-09T00:12:34.529Z,2.90
2019-02-09T00:15:39.937Z,2.90
2019-02-09T00:18:45.266Z,2.90
2019-02-09T00:21:50.215Z,2.90
2019-02-09T00:24:55.156Z,2.80
2019-02-09T00:28:00.294Z,2.70
2019-02-09T00:31:05.709Z,2.60
2019-02-09T00:34:10.762Z,2.60
2019-02-09T00:37:15.603Z,2.50
2019-02-09T00:40:21.054Z,2.50
2019-02-09T00:43:26.360Z,2.50
2019-02-09T00:46:31.374Z,2.50
2019-02-09T00:49:36.186Z,2.50
2019-02-09T00:52:41.152Z,2.50
2019-02-09T00:55:46.260Z,2.50
2019-02-09T00:58:51.274Z,2.40
2019-02-09T01:01:56.147Z,2.40
2019-02-09T01:05:01.067Z,2.40
2019-02-09T01:08:06.185Z,2.40
2019-02-09T01:11:11.218Z,2.40
2019-02-09T01:14:16.211Z,2.50
2019-02-09T01:17:21.194Z,2.50
2019-02-09T01:20:26.465Z,2.50
2019-02-09T01:23:31.577Z,2.50
2019-02-09T01:26:36.550Z,2.50
2019-02-09T01:29:41.665Z,2.50
2019-02-09T01:32:46.634Z,2.50
2019-02-09T01:35:51.646Z,2.50
2019-02-09T01:38:56.623Z,2.50
2019-02-09T01:42:01.602Z,2.60
2019-02-09T01:45:08.221Z,2.50
2019-02-09T01:48:16.083Z,2.50
2019-02-09T01:51:21.106Z,2.50
2019-02-09T01:54:26.198Z,2.50
2019-02-09T01:57:31.420Z,2.50
2019-02-09T02:00:37.373Z,2.50
2019-02-09T02:03:42.516Z,2.50
2019-02-09T02:06:47.486Z,2.50
2019-02-09T02:09:52.612Z,2.50
2019-02-09T02:12:57.579Z,2.50
2019-02-09T02:16:03.211Z,2.50
2019-02-09T02:19:08.665Z,2.50
2019-02-09T02:22:13.594Z,2.50
2019-02-09T02:25:19.072Z,2.50
2019-02-09T02:28:24.121Z,2.50
2019-02-09T02:31:29.125Z,2.50
2019-02-09T02:34:34.057Z,2.50
2019-02-09T02:37:39.106Z,2.40
2019-02-09T02:40:44.206Z,2.40
2019-02-09T02:43:49.199Z,2.40
2019-02-09T02:46:54.270Z,2.40
2019-02-09T02:50:18.630Z,2.40
2019-02-09T02:53:23.561Z,2.40
2019-02-09T02:56:28.537Z,2.40
2019-02-09T02:59:33.823Z,2.40
2019-02-09T03:02:38.819Z,2.40
2019-02-09T03:05:43.810Z,2.40
2019-02-09T03:08:55.302Z,2.40
2019-02-09T03:12:00.319Z,2.30
2019-02-09T03:15:07.277Z,2.30
2019-02-09T03:18:12.532Z,2.40
2019-02-09T03:21:17.524Z,2.30
2019-02-09T03:24:22.540Z,2.30
2019-02-09T03:27:27.560Z,2.30
2019-02-09T03:30:45.697Z,2.30
2019-02-09T03:33:39.065Z,2.20
2019-02-09T03:36:43.999Z,2.10
2019-02-09T03:39:49.133Z,2.00
2019-02-09T03:42:54.180Z,2.10
2019-02-09T03:45:59.493Z,2.00
2019-02-09T03:49:04.888Z,2.10
2019-02-09T03:52:09.907Z,2.00
2019-02-09T03:55:15.169Z,2.10
2019-02-09T03:58:20.125Z,2.00
2019-02-09T04:01:25.224Z,2.00
2019-02-09T04:04:30.246Z,2.00
2019-02-09T04:07:35.196Z,2.10
2019-02-09T04:10:40.381Z,2.00
2019-02-09T04:13:45.299Z,2.00
2019-02-09T04:16:50.438Z,2.10
2019-02-09T04:19:55.374Z,2.10
2019-02-09T04:23:00.251Z,2.20
2019-02-09T04:26:05.359Z,2.20
2019-02-09T04:29:10.614Z,2.20
2019-02-09T04:32:15.545Z,2.20
2019-02-09T04:35:20.696Z,2.20
2019-02-09T04:38:25.633Z,2.20
2019-02-09T04:41:30.741Z,2.20
2019-02-09T04:44:35.682Z,2.30
2019-02-09T04:47:40.537Z,2.30
2019-02-09T04:50:45.473Z,2.30
2019-02-09T04:53:50.608Z,2.20
2019-02-09T04:56:55.547Z,2.20
2019-02-09T05:00:00.535Z,2.20
2019-02-09T05:03:05.936Z,2.20
2019-02-09T05:06:10.874Z,2.20
2019-02-09T05:09:15.804Z,2.20
2019-02-09T05:12:20.683Z,2.20
2019-02-09T05:15:25.988Z,2.20
2019-02-09T05:18:30.979Z,2.20
2019-02-09T05:21:35.965Z,2.30
2019-02-09T05:24:41.108Z,2.20
2019-02-09T05:27:46.249Z,2.20
2019-02-09T05:30:51.252Z,2.20
2019-02-09T05:33:56.760Z,2.20
2019-02-09T05:37:01.872Z,2.20
2019-02-09T05:40:07.604Z,2.20
2019-02-09T05:43:12.790Z,2.10
2019-02-09T05:46:20.780Z,2.10
2019-02-09T05:49:25.766Z,2.10
2019-02-09T05:52:30.810Z,2.10
2019-02-09T05:55:35.819Z,2.20
2019-02-09T05:58:40.918Z,2.20
2019-02-09T06:01:46.075Z,2.20
2019-02-09T06:04:51.032Z,2.20
2019-02-09T06:07:56.297Z,2.30
2019-02-09T06:11:01.493Z,2.30
2019-02-09T06:14:06.828Z,2.30
2019-02-09T06:17:11.799Z,2.30
2019-02-09T06:20:19.623Z,2.30
2019-02-09T06:23:24.408Z,2.40
2019-02-09T06:26:29.464Z,2.30
2019-02-09T06:29:34.575Z,2.20
2019-02-09T06:32:39.679Z,2.10
2019-02-09T06:35:44.893Z,2.20
2019-02-09T06:38:49.938Z,2.20
2019-02-09T06:41:58.135Z,2.20
2019-02-09T06:45:03.354Z,2.20
2019-02-09T06:48:36.281Z,2.20
2019-02-09T06:51:41.493Z,2.20
2019-02-09T06:54:46.480Z,2.10
2019-02-09T06:57:51.558Z,2.10
2019-02-09T07:00:56.556Z,2.20
2019-02-09T07:04:01.452Z,2.30
2019-02-09T07:07:06.900Z,2.30
2019-02-09T07:10:13.001Z,2.40
2019-02-09T07:13:18.070Z,2.50
2019-02-09T07:16:23.349Z,2.60
2019-02-09T07:19:28.436Z,2.80
2019-02-09T07:22:33.617Z,3.00
2019-02-09T07:25:38.512Z,3.10
2019-02-09T07:28:43.412Z,3.30
2019-02-09T07:31:48.383Z,3.30
2019-02-09T07:34:53.283Z,3.40
2019-02-09T07:37:58.632Z,3.60
2019-02-09T07:41:03.595Z,3.70
2019-02-09T07:44:08.556Z,3.70
2019-02-09T07:47:13.539Z,3.80
2019-02-09T07:50:19.148Z,3.80
2019-02-09T07:53:24.151Z,3.90
2019-02-09T07:56:29.199Z,4.10
2019-02-09T07:59:34.286Z,4.10
2019-02-09T08:02:39.274Z,4.20
2019-02-09T08:05:44.392Z,4.10
2019-02-09T08:08:49.374Z,4.20
2019-02-09T08:11:54.410Z,4.10
2019-02-09T08:14:59.460Z,4.00
2019-02-09T08:18:04.760Z,4.00
2019-02-09T08:21:09.916Z,3.90
2019-02-09T08:24:14.826Z,3.80
2019-02-09T08:27:23.604Z,3.90
2019-02-09T08:30:29.330Z,4.00
2019-02-09T08:33:34.300Z,4.10
2019-02-09T08:36:39.328Z,4.20
2019-02-09T08:39:44.538Z,4.20
2019-02-09T08:42:49.464Z,4.30
2019-02-09T08:45:54.357Z,4.30
2019-02-09T08:48:59.539Z,4.70
2019-02-09T08:52:04.798Z,5.40
2019-02-09T08:55:09.954Z,6.00
2019-02-09T08:58:15.223Z,6.60
2019-02-09T09:01:20.118Z,7.10
2019-02-09T09:04:25.269Z,7.30
2019-02-09T09:07:30.401Z,7.60
2019-02-09T09:10:35.460Z,7.80
2019-02-09T09:13:40.413Z,8.00
2019-02-09T09:16:45.368Z,8.10
2019-02-09T09:19:50.501Z,8.10
2019-02-09T09:22:55.640Z,8.20
2019-02-09T09:26:00.815Z,8.30
2019-02-09T09:29:06.295Z,8.50
2019-02-09T09:32:11.314Z,9.00
2019-02-09T09:35:16.527Z,10.10
2019-02-09T09:38:21.628Z,12.60
2019-02-09T09:41:29.561Z,13.20
2019-02-09T09:44:34.481Z,12.90
2019-02-09T09:47:39.413Z,12.50
2019-02-09T09:50:44.334Z,12.20
2019-02-09T09:53:49.283Z,12.40
2019-02-09T09:56:54.289Z,13.30
2019-02-09T09:59:59.634Z,15.20
2019-02-09T10:03:05.110Z,16.20
2019-02-09T10:06:10.050Z,15.80
2019-02-09T10:09:14.982Z,15.90
2019-02-09T10:12:19.913Z,18.90
2019-02-09T10:15:25.498Z,22.40
2019-02-09T10:18:30.601Z,26.20
2019-02-09T10:21:35.651Z,28.00
2019-02-09T10:24:40.570Z,29.70
2019-02-09T10:27:46.148Z,31.60
2019-02-09T10:30:51.265Z,32.70
2019-02-09T10:33:56.236Z,31.60
2019-02-09T10:37:01.336Z,30.60
2019-02-09T10:40:08.307Z,30.90
2019-02-09T10:43:13.421Z,32.70
2019-02-09T10:46:18.377Z,33.50
2019-02-09T10:49:23.576Z,34.70
2019-02-09T10:52:28.433Z,35.60
2019-02-09T10:55:34.022Z,36.30
2019-02-09T10:58:39.078Z,36.10
2019-02-09T11:01:44.489Z,34.70
2019-02-09T11:04:49.680Z,34.20
2019-02-09T11:07:54.651Z,33.20
2019-02-09T11:10:59.772Z,32.40
2019-02-09T11:14:04.884Z,31.00
2019-02-09T11:17:09.794Z,29.40
2019-02-09T11:20:18.026Z,27.50
2019-02-09T11:23:23.192Z,27.80
2019-02-09T11:26:28.145Z,28.80
2019-02-09T11:29:33.289Z,29.70
2019-02-09T11:32:38.117Z,31.10
2019-02-09T11:35:43.066Z,32.60
2019-02-09T11:38:48.992Z,34.00
2019-02-09T11:41:54.053Z,34.20
2019-02-09T11:44:59.162Z,35.70
2019-02-09T11:48:04.266Z,37.00
2019-02-09T11:51:09.170Z,38.20
2019-02-09T11:54:14.176Z,38.00
2019-02-09T11:57:19.332Z,38.50
2019-02-09T12:00:29.313Z,39.30
2019-02-09T12:03:34.537Z,40.20
2019-02-09T12:06:39.613Z,40.80
2019-02-09T12:09:44.555Z,40.90
2019-02-09T12:12:49.557Z,41.00
2019-02-09T12:15:54.665Z,40.20
2019-02-09T12:18:59.545Z,39.40
2019-02-09T12:22:04.704Z,38.40
2019-02-09T12:25:12.593Z,37.60
2019-02-09T12:28:17.388Z,37.30
2019-02-09T12:31:22.604Z,36.60
2019-02-09T12:34:28.824Z,36.30
2019-02-09T12:37:33.781Z,36.90
2019-02-09T12:40:38.976Z,37.20
2019-02-09T12:43:44.048Z,36.50
2019-02-09T12:46:49.092Z,33.90
2019-02-09T12:49:54.365Z,32.70
2019-02-09T12:52:59.209Z,33.50
2019-02-09T12:56:04.514Z,34.00
2019-02-09T12:59:14.831Z,35.10
2019-02-09T13:02:16.758Z,35.50
2019-02-09T13:05:21.593Z,36.20
2019-02-09T13:08:26.328Z,37.40
2019-02-09T13:11:31.064Z,36.80
2019-02-09T13:14:35.889Z,37.20
2019-02-09T13:17:40.686Z,36.90
2019-02-09T13:20:46.216Z,37.50
2019-02-09T13:23:51.460Z,37.80
2019-02-09T13:26:56.559Z,38.20
2019-02-09T13:30:01.761Z,38.40
2019-02-09T13:33:07.059Z,38.90
2019-02-09T13:36:11.963Z,39.10
2019-02-09T13:39:17.032Z,38.90
2019-02-09T13:42:22.143Z,38.60
2019-02-09T13:45:35.805Z,36.90
2019-02-09T13:48:40.838Z,35.30
2019-02-09T13:51:45.869Z,35.10
2019-02-09T13:54:50.908Z,35.50
2019-02-09T13:57:55.907Z,35.00
2019-02-09T14:01:01.028Z,34.80
2019-02-09T14:04:06.109Z,35.00
2019-02-09T14:07:11.009Z,34.50
2019-02-09T14:10:20.510Z,34.10
2019-02-09T14:13:25.397Z,33.10
2019-02-09T14:16:37.642Z,32.10
2019-02-09T14:19:37.247Z,30.20
2019-02-09T14:22:42.803Z,28.00
2019-02-09T14:25:48.021Z,25.60
2019-02-09T14:28:52.919Z,24.00
2019-02-09T14:31:57.821Z,22.50
2019-02-09T14:35:03.911Z,21.20
2019-02-09T14:38:09.292Z,19.90
2019-02-09T14:41:14.544Z,19.00
2019-02-09T14:44:19.508Z,18.10
2019-02-09T14:47:24.654Z,17.40
2019-02-09T14:50:30.091Z,16.80
2019-02-09T14:53:35.375Z,16.30
2019-02-09T14:56:40.206Z,15.70
2019-02-09T14:59:45.241Z,15.20
2019-02-09T15:02:53.875Z,14.90
2019-02-09T15:05:56.976Z,14.60
2019-02-09T15:09:02.377Z,14.30
2019-02-09T15:12:07.486Z,14.00
2019-02-09T15:15:24.602Z,13.60
2019-02-09T15:18:29.626Z,13.20
2019-02-09T15:21:35.378Z,13.10
2019-02-09T15:24:40.291Z,12.90
2019-02-09T15:27:45.636Z,12.60
2019-02-09T15:30:50.574Z,12.40
2019-02-09T15:33:55.727Z,12.20
2019-02-09T15:37:01.799Z,11.80
2019-02-09T15:40:09.264Z,11.60
2019-02-09T15:43:14.677Z,11.40
2019-02-09T15:46:19.842Z,11.30
2019-02-09T15:49:24.824Z,11.10
2019-02-09T15:52:30.076Z,11.10
2019-02-09T15:55:35.181Z,11.00
2019-02-09T15:58:40.250Z,11.00
2019-02-09T16:01:45.490Z,10.90
2019-02-09T16:04:50.372Z,10.90
2019-02-09T16:07:55.528Z,10.80
2019-02-09T16:11:00.553Z,10.80
2019-02-09T16:14:05.954Z,10.70
2019-02-09T16:17:11.014Z,10.70
2019-02-09T16:20:18.589Z,10.60
2019-02-09T16:23:23.736Z,10.60
2019-02-09T16:26:28.823Z,10.50
2019-02-09T16:29:33.878Z,10.50
2019-02-09T16:32:38.976Z,10.40
2019-02-09T16:35:44.355Z,10.30
2019-02-09T16:38:49.428Z,10.30
2019-02-09T16:41:54.521Z,10.30
2019-02-09T16:44:59.512Z,10.20
2019-02-09T16:48:05.273Z,10.10
2019-02-09T16:51:10.321Z,10.00
2019-02-09T16:54:15.261Z,10.00
2019-02-09T16:57:20.304Z,10.00
2019-02-09T17:00:37.437Z,9.90
2019-02-09T17:03:42.363Z,9.80
2019-02-09T17:06:47.287Z,9.70
2019-02-09T17:09:52.209Z,9.60
2019-02-09T17:12:57.163Z,9.60
2019-02-09T17:16:02.105Z,9.50
2019-02-09T17:19:07.202Z,9.40
2019-02-09T17:22:12.256Z,9.30
2019-02-09T17:25:17.575Z,9.10
2019-02-09T17:28:22.685Z,9.10
2019-02-09T17:31:27.787Z,9.10
2019-02-09T17:34:40.624Z,9.10
2019-02-09T17:37:39.609Z,9.00
2019-02-09T17:40:46.676Z,9.00
2019-02-09T17:43:52.115Z,8.90
2019-02-09T17:46:57.376Z,8.80
2019-02-09T17:50:02.435Z,8.80
2019-02-09T17:53:07.421Z,8.70
2019-02-09T17:56:12.513Z,8.60
2019-02-09T17:59:17.658Z,8.50
2019-02-09T18:02:23.061Z,8.40
2019-02-09T18:05:28.059Z,8.30
2019-02-09T18:08:33.137Z,8.20
2019-02-09T18:11:38.645Z,8.20
2019-02-09T18:14:43.573Z,8.10
2019-02-09T18:17:48.965Z,8.10
2019-02-09T18:20:54.241Z,8.00
2019-02-09T18:23:59.123Z,8.00
2019-02-09T18:27:03.985Z,7.80
2019-02-09T18:30:12.146Z,7.50
2019-02-09T18:33:17.363Z,7.30
2019-02-09T18:36:22.856Z,7.20
2019-02-09T18:39:27.844Z,7.20
2019-02-09T18:42:32.926Z,7.10
2019-02-09T18:45:37.973Z,7.00
2019-02-09T18:48:42.969Z,7.00
2019-02-09T18:51:48.072Z,7.00
2019-02-09T18:54:53.058Z,7.00
2019-02-09T18:57:58.060Z,7.00
2019-02-09T19:01:03.693Z,7.00
2019-02-09T19:04:08.882Z,7.00
2019-02-09T19:07:13.955Z,7.00
2019-02-09T19:10:21.442Z,7.00
2019-02-09T19:13:26.566Z,7.00
2019-02-09T19:16:31.673Z,7.00
2019-02-09T19:19:36.763Z,6.90
2019-02-09T19:22:41.703Z,6.90
2019-02-09T19:25:47.254Z,7.00
2019-02-09T19:28:52.179Z,6.90
2019-02-09T19:31:57.229Z,6.80
2019-02-09T19:35:02.556Z,6.80
2019-02-09T19:38:07.605Z,6.80
2019-02-09T19:41:12.763Z,6.80
2019-02-09T19:44:17.803Z,6.60
2019-02-09T19:47:22.709Z,6.60
2019-02-09T19:50:27.696Z,6.60
2019-02-09T19:53:32.819Z,6.60
2019-02-09T19:56:37.949Z,6.60
2019-02-09T19:59:42.839Z,6.50
2019-02-09T20:02:47.839Z,6.50
2019-02-09T20:05:53.133Z,6.50
2019-02-09T20:08:58.105Z,6.40
2019-02-09T20:12:02.976Z,6.30
2019-02-09T20:15:09.155Z,6.30
2019-02-09T20:18:14.311Z,6.30
2019-02-09T20:21:19.767Z,6.20
2019-02-09T20:24:25.028Z,6.20
2019-02-09T20:27:30.041Z,6.10
2019-02-09T20:30:36.105Z,6.00
2019-02-09T20:33:41.248Z,6.00
2019-02-09T20:36:46.394Z,6.00
2019-02-09T20:39:51.456Z,6.00
2019-02-09T20:43:01.728Z,6.00
2019-02-09T20:46:03.567Z,5.90
2019-02-09T20:49:08.555Z,5.90
2019-02-09T20:52:13.634Z,5.90
2019-02-09T20:55:19.795Z,5.80
2019-02-09T20:58:25.064Z,5.80
2019-02-09T21:01:30.021Z,5.70
2019-02-09T21:04:35.144Z,5.80
2019-02-09T21:07:40.264Z,5.60
2019-02-09T21:10:45.308Z,5.60
2019-02-09T21:13:50.670Z,5.60
2019-02-09T21:16:55.640Z,5.50
2019-02-09T21:20:00.949Z,5.50
2019-02-09T21:23:06.742Z,5.50
2019-02-09T21:26:12.003Z,5.50
2019-02-09T21:29:17.501Z,5.40
2019-02-09T21:32:22.516Z,5.40
2019-02-09T21:35:30.459Z,5.40
2019-02-09T21:38:36.008Z,5.40
2019-02-09T21:41:40.985Z,5.40
2019-02-09T21:44:45.954Z,5.30
2019-02-09T21:47:51.421Z,5.40
2019-02-09T21:50:56.344Z,5.30
2019-02-09T21:54:01.347Z,5.30
2019-02-09T21:57:06.409Z,5.30
2019-02-09T22:00:24.413Z,5.10
2019-02-09T22:03:29.756Z,5.10
2019-02-09T22:06:34.697Z,5.10
2019-02-09T22:09:39.800Z,5.10
2019-02-09T22:12:44.883Z,5.00
2019-02-09T22:15:49.890Z,5.00
2019-02-09T22:18:55.572Z,5.00
2019-02-09T22:22:00.965Z,5.10
2019-02-09T22:25:07.501Z,5.00
2019-02-09T22:28:12.697Z,5.00
2019-02-09T22:31:21.850Z,5.00
2019-02-09T22:34:24.404Z,5.00
2019-02-09T22:37:29.412Z,4.90
2019-02-09T22:40:35.446Z,4.80
2019-02-09T22:43:40.685Z,4.80
2019-02-09T22:46:45.645Z,4.90
2019-02-09T22:49:50.956Z,4.80
2019-02-09T22:52:56.028Z,4.80
2019-02-09T22:56:00.922Z,4.80
2019-02-09T22:59:06.393Z,4.80
2019-02-09T23:02:11.741Z,4.80
2019-02-09T23:05:42.068Z,4.80
2019-02-09T23:08:47.942Z,4.70
2019-02-09T23:11:53.372Z,4.70
2019-02-09T23:14:58.295Z,4.60
2019-02-09T23:18:03.635Z,4.50
2019-02-09T23:21:08.992Z,4.50
2019-02-09T23:24:13.972Z,4.40
2019-02-09T23:27:18.998Z,4.40
2019-02-09T23:30:23.971Z,4.40
2019-02-09T23:33:28.921Z,4.50
2019-02-09T23:36:34.109Z,4.50
2019-02-09T23:39:39.052Z,4.50
2019-02-09T23:42:44.203Z,4.50
2019-02-09T23:45:49.332Z,4.50
2019-02-09T23:48:54.624Z,4.40
2019-02-09T23:51:59.776Z,4.30
2019-02-09T23:55:04.777Z,4.30
2019-02-09T23:58:09.820Z,4.30
